createdAt,value
2023-05-05T00:02:19.566Z,8.75
2023-05-05T00:04:47.772Z,6.00
2023-05-05T00:07:16.131Z,6.00
2023-05-05T00:09:44.676Z,6.75
2023-05-05T00:12:14.321Z,7.25
2023-05-05T00:14:42.807Z,5.00
2023-05-05T00:17:11.115Z,6.00
2023-05-05T00:19:39.342Z,5.25
2023-05-05T00:22:09.796Z,4.00
2023-05-05T00:24:37.968Z,5.00
2023-05-05T00:27:06.058Z,6.00
2023-05-05T00:29:35.646Z,5.25
2023-05-05T00:32:04.109Z,2.00
2023-05-05T00:34:32.332Z,3.25
2023-05-05T00:37:01.740Z,5.00
2023-05-05T00:39:29.874Z,5.00
2023-05-05T00:41:58.148Z,5.25
2023-05-05T00:44:39.444Z,3.00
2023-05-05T00:47:07.746Z,4.75
2023-05-05T00:49:36.428Z,5.50
2023-05-05T00:52:05.193Z,4.50
2023-05-05T00:54:33.859Z,6.00
2023-05-05T00:57:02.265Z,4.00
2023-05-05T00:59:31.023Z,2.00
2023-05-05T01:02:01.962Z,0.00
2023-05-05T01:04:30.330Z,6.00
2023-05-05T01:07:05.105Z,5.25
2023-05-05T01:09:39.264Z,5.50
2023-05-05T01:12:11.793Z,6.00
2023-05-05T01:14:41.036Z,5.00
2023-05-05T01:17:15.738Z,4.75
2023-05-05T01:20:00.380Z,6.50
2023-05-05T01:22:30.264Z,4.50
2023-05-05T01:25:05.077Z,4.25
2023-05-05T01:27:46.334Z,5.50
2023-05-05T01:30:21.833Z,5.50
2023-05-05T01:32:55.486Z,5.00
2023-05-05T01:35:28.481Z,4.50
2023-05-05T01:38:01.789Z,5.25
2023-05-05T01:40:32.335Z,5.25
2023-05-05T01:43:02.820Z,5.00
2023-05-05T01:45:33.522Z,5.00
2023-05-05T01:48:04.223Z,4.50
2023-05-05T01:50:33.218Z,5.00
2023-05-05T01:53:02.746Z,3.00
2023-05-05T01:55:32.063Z,1.00
2023-05-05T01:58:00.879Z,5.00
2023-05-05T02:00:29.975Z,0.00
2023-05-05T02:02:59.976Z,5.50
2023-05-05T02:05:30.503Z,5.75
2023-05-05T02:08:00.189Z,5.50
2023-05-05T02:10:29.515Z,5.00
2023-05-05T02:12:58.600Z,6.00
2023-05-05T02:15:27.203Z,5.00
2023-05-05T02:17:55.794Z,4.75
2023-05-05T02:20:24.876Z,7.50
2023-05-05T02:22:54.412Z,6.00
2023-05-05T02:25:23.899Z,5.50
2023-05-05T02:27:56.130Z,5.00
2023-05-05T02:30:25.198Z,6.00
2023-05-05T02:32:56.718Z,4.25
2023-05-05T02:35:32.676Z,6.00
2023-05-05T02:38:05.583Z,5.25
2023-05-05T02:40:41.271Z,5.00
2023-05-05T02:43:12.136Z,5.00
2023-05-05T02:45:40.354Z,6.00
2023-05-05T02:48:10.695Z,4.75
2023-05-05T02:50:40.188Z,5.75
2023-05-05T02:53:36.250Z,4.25
2023-05-05T02:56:09.365Z,4.75
2023-05-05T02:58:47.782Z,4.00
2023-05-05T03:01:23.506Z,5.00
2023-05-05T03:03:55.867Z,5.00
2023-05-05T03:06:26.836Z,6.00
2023-05-05T03:09:02.762Z,5.00
2023-05-05T03:11:33.348Z,5.75
2023-05-05T03:14:08.867Z,5.75
2023-05-05T03:16:38.109Z,6.00
2023-05-05T03:19:08.264Z,5.25
2023-05-05T03:21:36.717Z,5.75
2023-05-05T03:24:14.186Z,5.50
2023-05-05T03:26:43.020Z,5.00
2023-05-05T03:29:11.919Z,6.00
2023-05-05T03:31:41.736Z,2.50
2023-05-05T03:34:09.859Z,6.00
2023-05-05T03:36:44.238Z,5.25
2023-05-05T03:39:16.003Z,5.00
2023-05-05T03:42:02.840Z,5.00
2023-05-05T03:44:33.751Z,4.00
2023-05-05T03:47:01.967Z,4.75
2023-05-05T03:49:32.198Z,3.25
2023-05-05T03:52:00.405Z,2.75
2023-05-05T03:54:30.257Z,3.50
2023-05-05T03:56:58.429Z,2.00
2023-05-05T03:59:27.168Z,3.00
2023-05-05T04:01:55.593Z,3.00
2023-05-05T04:04:23.858Z,5.00
2023-05-05T04:07:10.350Z,3.00
2023-05-05T04:10:15.622Z,4.00
2023-05-05T04:13:19.994Z,1.75
2023-05-05T04:15:50.066Z,3.00
2023-05-05T04:18:19.558Z,5.25
2023-05-05T04:20:48.447Z,3.00
2023-05-05T04:23:17.411Z,3.00
2023-05-05T04:25:47.067Z,4.67
2023-05-05T04:28:16.093Z,4.50
2023-05-05T04:30:44.352Z,1.75
2023-05-05T04:33:14.293Z,1.75
2023-05-05T04:35:42.370Z,3.00
2023-05-05T04:38:11.362Z,3.50
2023-05-05T04:40:42.404Z,3.25
2023-05-05T04:43:12.108Z,2.25
2023-05-05T04:45:40.687Z,2.00
2023-05-05T04:48:09.176Z,2.00
2023-05-05T04:50:39.449Z,2.50
2023-05-05T04:53:07.729Z,2.50
2023-05-05T04:55:35.941Z,0.00
2023-05-05T04:58:04.036Z,3.00
2023-05-05T05:00:32.634Z,3.00
2023-05-05T05:03:03.333Z,4.00
2023-05-05T05:05:31.685Z,2.00
2023-05-05T05:08:01.189Z,2.00
2023-05-05T05:10:29.727Z,3.00
2023-05-05T05:12:57.914Z,3.25
2023-05-05T05:15:26.047Z,3.00
2023-05-05T05:17:54.231Z,2.00
2023-05-05T05:20:22.657Z,2.00
2023-05-05T05:22:51.080Z,2.00
2023-05-05T05:25:22.882Z,1.00
2023-05-05T05:28:02.289Z,1.00
2023-05-05T05:30:39.168Z,0.50
2023-05-05T05:33:09.046Z,1.25
2023-05-05T05:35:37.561Z,2.75
2023-05-05T05:38:05.650Z,1.50
2023-05-05T05:40:34.728Z,1.75
2023-05-05T05:43:04.486Z,2.25
2023-05-05T05:45:33.759Z,4.00
2023-05-05T05:48:04.165Z,2.00
2023-05-05T05:50:32.625Z,0.75
2023-05-05T05:53:01.104Z,1.75
2023-05-05T05:55:30.396Z,2.00
2023-05-05T05:57:58.897Z,1.00
2023-05-05T06:00:29.756Z,1.75
2023-05-05T06:03:04.654Z,1.25
2023-05-05T06:05:36.945Z,1.00
2023-05-05T06:08:05.447Z,2.00
2023-05-05T06:10:56.031Z,1.00
2023-05-05T06:13:42.570Z,0.75
2023-05-05T06:16:12.194Z,1.00
2023-05-05T06:18:44.813Z,1.00
2023-05-05T06:21:13.513Z,2.00
2023-05-05T06:23:42.554Z,1.00
2023-05-05T06:26:11.174Z,0.00
2023-05-05T06:28:39.492Z,0.00
2023-05-05T06:31:08.762Z,1.00
2023-05-05T06:33:38.376Z,1.00
2023-05-05T06:36:06.865Z,0.50
2023-05-05T06:38:35.079Z,1.00
2023-05-05T06:41:03.356Z,0.00
2023-05-05T06:43:31.407Z,1.75
2023-05-05T06:46:02.150Z,1.00
2023-05-05T06:48:30.280Z,0.00
2023-05-05T06:51:00.264Z,0.50
2023-05-05T06:53:28.438Z,2.00
2023-05-05T06:55:56.672Z,0.00
2023-05-05T06:58:24.704Z,0.00
2023-05-05T07:00:53.154Z,1.00
2023-05-05T07:03:21.797Z,0.00
2023-05-05T07:05:50.678Z,1.25
2023-05-05T07:08:20.469Z,1.00
2023-05-05T07:10:48.634Z,1.00
2023-05-05T07:13:17.442Z,1.00
2023-05-05T07:15:46.781Z,0.00
2023-05-05T07:18:15.032Z,2.00
2023-05-05T07:20:43.172Z,1.75
2023-05-05T07:23:11.449Z,2.00
2023-05-05T07:25:41.027Z,0.00
2023-05-05T07:28:09.142Z,0.00
2023-05-05T07:30:37.217Z,1.00
2023-05-05T07:33:05.483Z,1.25
2023-05-05T07:35:33.689Z,0.00
2023-05-05T07:38:01.877Z,1.25
2023-05-05T07:40:30.245Z,0.00
2023-05-05T07:42:59.799Z,2.00
2023-05-05T07:45:30.887Z,1.50
2023-05-05T07:47:59.219Z,0.25
2023-05-05T07:50:27.329Z,1.00
2023-05-05T07:53:02.519Z,1.50
2023-05-05T07:55:41.719Z,2.00
2023-05-05T07:58:12.178Z,1.00
2023-05-05T08:00:41.034Z,1.00
2023-05-05T08:03:11.634Z,1.00
2023-05-05T08:05:40.904Z,2.00
2023-05-05T08:08:09.122Z,1.50
2023-05-05T08:10:37.212Z,1.00
2023-05-05T08:13:05.608Z,2.00
2023-05-05T08:15:35.219Z,1.00
2023-05-05T08:18:03.400Z,1.00
2023-05-05T08:20:32.252Z,1.00
2023-05-05T08:23:00.435Z,1.00
2023-05-05T08:25:28.496Z,0.75
2023-05-05T08:28:15.040Z,1.00
2023-05-05T08:30:44.678Z,2.00
2023-05-05T08:33:12.964Z,0.00
2023-05-05T08:35:41.150Z,2.00
2023-05-05T08:38:09.372Z,1.75
2023-05-05T08:40:39.462Z,2.00
2023-05-05T08:43:07.855Z,1.00
2023-05-05T08:45:36.036Z,1.00
2023-05-05T08:48:06.864Z,1.00
2023-05-05T08:50:35.224Z,0.00
2023-05-05T08:53:09.844Z,1.00
2023-05-05T08:55:42.928Z,1.50
2023-05-05T08:58:11.303Z,2.25
2023-05-05T09:00:42.892Z,2.00
2023-05-05T09:03:13.782Z,2.00
2023-05-05T09:05:44.637Z,1.25
2023-05-05T09:08:12.966Z,0.00
2023-05-05T09:10:42.073Z,1.00
2023-05-05T09:13:10.443Z,2.00
2023-05-05T09:15:39.742Z,4.00
2023-05-05T09:18:09.723Z,2.00
2023-05-05T09:20:40.103Z,1.50
2023-05-05T09:23:13.048Z,2.00
2023-05-05T09:25:41.879Z,2.00
2023-05-05T09:28:11.595Z,1.00
2023-05-05T09:30:40.316Z,4.00
2023-05-05T09:33:08.613Z,4.50
2023-05-05T09:35:54.695Z,3.50
2023-05-05T09:38:25.318Z,1.00
2023-05-05T09:40:54.007Z,2.50
2023-05-05T09:43:23.108Z,0.00
2023-05-05T09:45:51.684Z,2.25
2023-05-05T09:48:27.054Z,1.00
2023-05-05T09:50:56.097Z,4.00
2023-05-05T09:53:26.038Z,1.25
2023-05-05T09:55:55.279Z,2.50
2023-05-05T09:58:24.949Z,2.00
2023-05-05T10:00:53.822Z,2.50
2023-05-05T10:03:22.396Z,2.00
2023-05-05T10:05:51.965Z,1.00
2023-05-05T10:08:20.981Z,0.00
2023-05-05T10:10:53.493Z,2.00
2023-05-05T10:13:22.802Z,1.75
2023-05-05T10:15:52.031Z,0.50
2023-05-05T10:18:21.652Z,1.00
2023-05-05T10:20:53.238Z,1.00
2023-05-05T10:23:23.880Z,1.00
2023-05-05T10:25:56.026Z,3.50
2023-05-05T10:28:31.045Z,1.00
2023-05-05T10:31:03.017Z,1.25
2023-05-05T10:33:46.516Z,2.00
2023-05-05T10:36:16.118Z,2.50
2023-05-05T10:38:44.576Z,3.00
2023-05-05T10:41:15.083Z,2.00
2023-05-05T10:43:43.664Z,1.00
2023-05-05T10:46:12.531Z,2.00
2023-05-05T10:48:47.455Z,0.00
2023-05-05T10:51:38.563Z,1.75
2023-05-05T10:54:11.666Z,1.00
2023-05-05T10:56:42.207Z,1.00
2023-05-05T10:59:25.800Z,4.00
2023-05-05T11:01:54.221Z,1.50
2023-05-05T11:04:22.974Z,0.00
2023-05-05T11:07:12.712Z,2.00
2023-05-05T11:09:56.060Z,1.00
2023-05-05T11:12:31.099Z,1.00
2023-05-05T11:15:17.913Z,1.75
2023-05-05T11:17:46.701Z,4.00
2023-05-05T11:20:15.097Z,0.50
2023-05-05T11:23:07.735Z,0.75
2023-05-05T11:25:48.729Z,1.50
2023-05-05T11:28:19.304Z,2.50
2023-05-05T11:31:02.713Z,0.25
2023-05-05T11:33:31.789Z,5.00
2023-05-05T11:36:03.371Z,2.00
2023-05-05T11:38:42.589Z,4.00
2023-05-05T11:41:14.031Z,4.00
2023-05-05T11:43:43.729Z,1.00
2023-05-05T11:46:12.317Z,2.00
2023-05-05T11:48:47.228Z,1.00
2023-05-05T11:51:16.325Z,1.00
2023-05-05T11:53:45.033Z,1.00
2023-05-05T11:56:18.840Z,1.25
2023-05-05T11:58:48.485Z,1.00
2023-05-05T12:01:17.053Z,1.00
2023-05-05T12:03:46.416Z,1.00
2023-05-05T12:06:14.710Z,1.00
2023-05-05T12:08:43.492Z,1.50
2023-05-05T12:11:12.369Z,1.00
2023-05-05T12:13:41.735Z,0.75
2023-05-05T12:16:11.842Z,2.00
2023-05-05T12:18:40.632Z,1.50
2023-05-05T12:21:15.479Z,1.75
2023-05-05T12:23:45.508Z,0.00
2023-05-05T12:26:28.085Z,2.00
2023-05-05T12:28:56.512Z,0.00
2023-05-05T12:31:34.622Z,1.00
2023-05-05T12:34:03.160Z,1.00
2023-05-05T12:36:31.343Z,0.25
2023-05-05T12:38:59.607Z,0.00
2023-05-05T12:41:28.378Z,2.00
2023-05-05T12:43:57.434Z,2.00
2023-05-05T12:46:29.641Z,1.25
2023-05-05T12:49:01.615Z,0.00
2023-05-05T12:51:32.668Z,1.75
2023-05-05T12:54:05.176Z,1.00
2023-05-05T12:56:35.114Z,1.00
2023-05-05T12:59:04.163Z,0.00
2023-05-05T13:01:34.031Z,0.00
2023-05-05T13:04:12.991Z,1.50
2023-05-05T13:06:41.798Z,1.00
2023-05-05T13:09:11.001Z,2.00
2023-05-05T13:11:39.616Z,1.50
2023-05-05T13:14:08.310Z,1.25
2023-05-05T13:16:37.978Z,0.75
2023-05-05T13:19:06.247Z,1.00
2023-05-05T13:21:34.565Z,1.00
2023-05-05T13:24:20.822Z,1.00
2023-05-05T13:26:51.540Z,0.25
2023-05-05T13:29:19.811Z,1.00
2023-05-05T13:31:50.032Z,0.00
2023-05-05T13:34:19.346Z,0.00
2023-05-05T13:36:47.551Z,1.00
2023-05-05T13:39:15.785Z,0.25
2023-05-05T13:41:44.912Z,1.00
2023-05-05T13:44:14.127Z,1.00
2023-05-05T13:46:43.129Z,0.00
2023-05-05T16:07:26.986Z,2.00
2023-05-05T16:09:55.267Z,1.75
2023-05-05T16:12:23.451Z,1.00
2023-05-05T16:14:51.644Z,2.00
2023-05-05T16:17:21.036Z,1.50
2023-05-05T16:19:50.502Z,2.00
2023-05-05T16:22:18.829Z,1.00
2023-05-05T16:24:48.383Z,1.00
2023-05-05T16:27:16.627Z,0.00
2023-05-05T16:29:44.912Z,1.50
2023-05-05T16:32:13.272Z,1.00
2023-05-05T16:34:41.464Z,1.00
2023-05-05T16:37:09.998Z,1.25
2023-05-05T16:39:40.430Z,1.50
2023-05-05T16:42:10.139Z,1.00
2023-05-05T16:44:38.298Z,2.50
2023-05-05T16:47:07.051Z,3.00
2023-05-05T16:49:35.372Z,5.00
2023-05-05T16:52:03.697Z,3.00
2023-05-05T16:54:32.138Z,4.00
2023-05-05T16:57:00.566Z,2.50
2023-05-05T16:59:31.674Z,2.00
2023-05-05T17:02:00.178Z,1.50
2023-05-05T17:04:28.501Z,2.00
2023-05-05T17:06:57.721Z,0.50
2023-05-05T17:09:26.067Z,2.00
2023-05-05T17:11:56.347Z,2.50
2023-05-05T17:14:24.678Z,3.00
2023-05-05T17:16:54.585Z,2.00
2023-05-05T17:19:22.790Z,2.00
2023-05-05T17:21:51.019Z,2.00
2023-05-05T17:24:19.219Z,2.00
2023-05-05T17:26:47.489Z,4.00
2023-05-05T17:29:19.874Z,1.75
2023-05-05T17:32:08.170Z,1.00
2023-05-05T17:34:36.683Z,2.00
2023-05-05T17:37:05.137Z,4.00
2023-05-05T17:39:33.957Z,1.00
2023-05-05T17:42:02.163Z,4.00
2023-05-05T17:44:31.575Z,5.00
2023-05-05T17:47:17.012Z,4.00
2023-05-05T17:49:46.675Z,4.00
2023-05-05T17:52:14.827Z,2.00
2023-05-05T17:54:43.872Z,4.25
2023-05-05T17:57:12.845Z,5.00
2023-05-05T17:59:42.336Z,5.50
2023-05-05T18:02:10.616Z,4.00
2023-05-05T18:04:39.174Z,4.00
2023-05-05T18:07:10.531Z,7.00
2023-05-05T18:09:39.082Z,6.00
2023-05-05T18:12:07.948Z,7.75
2023-05-05T18:14:36.137Z,1.50
2023-05-05T18:17:04.934Z,8.00
2023-05-05T18:19:33.475Z,8.00
2023-05-05T18:22:01.743Z,8.00
2023-05-05T18:24:31.974Z,7.00
2023-05-05T18:27:00.137Z,5.00
2023-05-05T18:29:29.211Z,5.00
2023-05-05T18:31:57.517Z,5.25
2023-05-05T18:34:26.975Z,4.00
2023-05-05T18:36:55.472Z,5.25
2023-05-05T18:39:24.776Z,5.00
2023-05-05T18:41:54.366Z,4.00
2023-05-05T18:44:22.542Z,5.00
2023-05-05T18:46:50.717Z,5.00
2023-05-05T18:49:18.975Z,1.75
2023-05-05T18:51:47.225Z,6.00
2023-05-05T18:54:15.550Z,2.00
2023-05-05T18:56:43.671Z,5.00
2023-05-05T18:59:13.356Z,5.25
2023-05-05T19:01:43.022Z,6.75
2023-05-05T19:04:26.774Z,7.00
2023-05-05T19:06:58.703Z,6.50
2023-05-05T19:09:26.955Z,7.00
2023-05-05T19:11:55.202Z,2.25
2023-05-05T19:14:25.312Z,7.00
2023-05-05T19:16:56.021Z,9.80
2023-05-05T19:19:24.721Z,8.00
2023-05-05T19:21:54.345Z,6.60
2023-05-05T19:24:24.323Z,7.60
2023-05-05T19:26:52.537Z,5.50
2023-05-05T19:29:21.042Z,8.40
2023-05-05T19:31:50.766Z,3.00
2023-05-05T19:34:19.220Z,3.00
2023-05-05T19:36:47.413Z,6.00
2023-05-05T19:39:15.924Z,4.00
2023-05-05T19:41:44.444Z,6.60
2023-05-05T19:44:12.702Z,4.50
2023-05-05T19:46:43.164Z,6.25
2023-05-05T19:49:12.979Z,7.00
2023-05-05T19:51:42.130Z,4.50
2023-05-05T19:54:11.022Z,4.00
2023-05-05T19:56:39.663Z,6.00
2023-05-05T19:59:07.972Z,1.00
2023-05-05T20:01:39.985Z,3.80
2023-05-05T20:04:10.973Z,0.00
2023-05-05T20:06:47.034Z,3.60
2023-05-05T20:09:19.657Z,6.00
2023-05-05T20:11:51.820Z,4.00
2023-05-05T20:14:24.178Z,4.00
2023-05-05T20:16:55.360Z,4.80
2023-05-05T20:19:24.321Z,6.00
2023-05-05T20:21:54.028Z,4.50
2023-05-05T20:24:22.224Z,0.60
2023-05-05T20:26:50.441Z,5.50
2023-05-05T20:29:19.887Z,6.00
2023-05-05T20:31:48.404Z,4.00
2023-05-05T20:34:18.250Z,0.80
2023-05-05T20:36:46.499Z,0.20
2023-05-05T20:39:17.138Z,6.00
2023-05-05T20:41:46.418Z,4.00
2023-05-05T20:44:14.779Z,5.20
2023-05-05T20:46:43.027Z,5.60
2023-05-05T20:49:11.227Z,8.20
2023-05-05T20:51:39.665Z,6.80
2023-05-05T20:54:08.017Z,6.60
2023-05-05T20:56:37.631Z,6.00
2023-05-05T20:59:06.279Z,6.80
2023-05-05T21:01:34.653Z,3.20
2023-05-05T21:04:02.907Z,6.00
2023-05-05T21:06:31.112Z,5.60
2023-05-05T21:08:59.322Z,5.60
2023-05-05T21:11:27.547Z,4.80
2023-05-05T21:13:57.295Z,3.50
2023-05-05T21:16:25.701Z,2.50
2023-05-05T21:18:53.888Z,1.00
2023-05-05T21:21:23.924Z,4.00
2023-05-05T21:23:52.057Z,3.00
2023-05-05T21:26:21.137Z,3.00
2023-05-05T21:28:49.536Z,4.00
2023-05-05T21:31:22.131Z,4.00
2023-05-05T21:33:50.828Z,4.00
2023-05-05T21:36:19.640Z,2.60
2023-05-05T21:38:47.880Z,5.60
2023-05-05T21:41:16.849Z,1.00
2023-05-05T21:43:45.042Z,4.00
2023-05-05T21:46:13.348Z,0.80
2023-05-05T21:48:42.950Z,3.40
2023-05-05T21:51:11.116Z,3.00
2023-05-05T21:53:40.021Z,3.00
2023-05-05T21:56:08.720Z,2.00
2023-05-05T21:58:36.854Z,3.00
2023-05-05T22:01:05.212Z,0.00
2023-05-05T22:03:35.026Z,3.00
2023-05-05T22:06:04.660Z,3.00
2023-05-05T22:08:32.818Z,0.00
2023-05-05T22:11:01.800Z,3.00
2023-05-05T22:13:29.962Z,1.00
2023-05-05T22:15:58.136Z,2.60
2023-05-05T22:18:26.306Z,3.60
2023-05-05T22:20:54.481Z,1.00
2023-05-05T22:23:24.134Z,1.00
2023-05-05T22:25:52.247Z,1.50
2023-05-05T22:28:21.420Z,3.00
2023-05-05T22:30:49.899Z,1.00
2023-05-05T22:33:18.173Z,4.00
2023-05-05T22:35:46.520Z,1.00
2023-05-05T22:38:14.615Z,1.00
2023-05-05T22:40:44.206Z,3.00
2023-05-05T22:43:12.347Z,1.40
2023-05-05T22:45:40.616Z,0.80
2023-05-05T22:48:09.028Z,1.00
2023-05-05T22:50:37.506Z,3.00
2023-05-05T22:53:05.633Z,3.00
2023-05-05T22:55:33.752Z,3.00
2023-05-05T22:58:03.504Z,1.00
2023-05-05T23:00:31.784Z,0.00
2023-05-05T23:02:59.934Z,2.20
2023-05-05T23:05:28.152Z,0.00
2023-05-05T23:08:00.208Z,1.00
2023-05-05T23:10:28.895Z,1.00
2023-05-05T23:12:57.065Z,0.00
2023-05-05T23:15:26.653Z,1.00
2023-05-05T23:17:54.794Z,0.00
2023-05-05T23:20:23.234Z,0.00
2023-05-05T23:22:51.314Z,0.60
2023-05-05T23:25:19.867Z,0.00
2023-05-05T23:27:49.103Z,0.40
2023-05-05T23:30:17.318Z,0.00
2023-05-05T23:32:46.939Z,1.00
2023-05-05T23:35:15.365Z,1.00
2023-05-05T23:37:43.505Z,1.00
2023-05-05T23:40:11.800Z,1.00
2023-05-05T23:42:40.250Z,0.00
2023-05-05T23:45:09.163Z,1.00
2023-05-05T23:47:37.714Z,1.00
2023-05-05T23:50:07.936Z,1.00
2023-05-05T23:52:36.118Z,1.00
2023-05-05T23:55:04.335Z,1.00
2023-05-05T23:57:32.563Z,1.00
